Time;durP1;ratioP1;P1;durP2;ratioP2;P2;SDS_P1;SDS_P2;PMS_P1;PMS_P2;Temp;Humidity;BMP_temperature;BMP_pressure;BME280_temperature;BME280_humidity;BME280_pressure;Samples;Min_cycle;Max_cycle;Signal;HPM_P1;HPM_P2
2022/05/03 00:00:16;;;;;;;3.80;3.00;;;12.80;95.40;;;;;;5072475;28;20052;-68
2022/05/03 00:03:01;;;;;;;5.13;3.03;;;12.80;95.50;;;;;;5072503;28;20044;-68
2022/05/03 00:05:37;;;;;;;6.90;3.03;;;12.90;95.50;;;;;;5072589;28;20407;-68
2022/05/03 00:08:05;;;;;;;5.18;3.20;;;12.80;95.40;;;;;;5072611;28;20504;-68
2022/05/03 00:10:39;;;;;;;4.63;3.42;;;12.80;95.50;;;;;;5071483;28;20087;-67
2022/05/03 00:13:12;;;;;;;3.65;3.10;;;12.90;95.40;;;;;;5072145;28;20048;-68
2022/05/03 00:15:40;;;;;;;6.47;3.30;;;12.80;95.70;;;;;;5071154;28;20055;-68
2022/05/03 00:18:07;;;;;;;6.70;3.58;;;12.80;95.80;;;;;;5072278;28;20400;-68
2022/05/03 00:20:33;;;;;;;6.18;3.08;;;12.70;95.70;;;;;;5072342;28;20032;-68
2022/05/03 00:23:00;;;;;;;2.85;2.55;;;12.70;96.00;;;;;;5072425;28;20036;-68
2022/05/03 00:25:29;;;;;;;5.03;2.88;;;12.80;96.00;;;;;;5072724;28;20112;-68
2022/05/03 00:27:55;;;;;;;3.78;2.67;;;12.80;96.10;;;;;;5076002;28;20586;-68
2022/05/03 00:30:21;;;;;;;5.15;2.90;;;12.70;96.00;;;;;;5076006;28;20032;-68
2022/05/03 00:32:51;;;;;;;10.30;3.78;;;12.70;96.10;;;;;;5075682;28;20044;-68
2022/05/03 00:35:21;;;;;;;4.78;3.20;;;12.70;96.20;;;;;;5075782;28;20113;-68
2022/05/03 00:37:47;;;;;;;5.20;3.33;;;12.70;96.40;;;;;;5076263;28;20036;-68
2022/05/03 00:40:17;;;;;;;6.43;3.05;;;12.70;96.40;;;;;;5075843;28;20510;-68
2022/05/03 00:42:58;;;;;;;4.53;2.95;;;12.70;96.30;;;;;;5075963;28;20102;-68
2022/05/03 00:45:42;;;;;;;5.45;3.38;;;12.70;96.30;;;;;;5075858;28;20120;-68
2022/05/03 00:48:39;;;;;;;4.32;3.22;;;12.80;96.50;;;;;;5075521;28;20068;-68
2022/05/03 00:51:39;;;;;;;4.80;3.10;;;12.80;96.50;;;;;;5075491;28;20538;-68
2022/05/03 00:54:14;;;;;;;4.00;2.70;;;12.80;96.40;;;;;;5075366;28;20098;-69
2022/05/03 00:56:55;;;;;;;6.57;3.13;;;12.90;96.60;;;;;;5075118;28;20119;-68
2022/05/03 00:59:39;;;;;;;6.00;3.17;;;12.90;96.50;;;;;;5075086;28;20072;-68
2022/05/03 01:02:07;;;;;;;4.50;3.30;;;12.80;96.70;;;;;;5075193;28;20044;-67
2022/05/03 01:05:03;;;;;;;5.05;3.92;;;12.80;96.80;;;;;;5075272;28;20040;-68
2022/05/03 01:07:33;;;;;;;4.55;3.42;;;12.70;97.00;;;;;;5075738;28;20443;-69
2022/05/03 01:10:04;;;;;;;4.53;3.00;;;12.70;97.00;;;;;;5075407;28;20515;-68
2022/05/03 01:12:40;;;;;;;7.28;3.85;;;12.70;96.90;;;;;;5074907;28;20036;-67
2022/05/03 01:15:08;;;;;;;4.57;3.42;;;12.60;97.50;;;;;;5074882;28;20048;-68
2022/05/03 01:17:40;;;;;;;3.67;2.90;;;12.50;97.10;;;;;;5075031;28;20040;-68
2022/05/03 01:20:08;;;;;;;5.63;3.45;;;12.60;97.10;;;;;;5073654;28;20087;-68
2022/05/03 01:23:08;;;;;;;6.63;3.10;;;12.50;97.10;;;;;;5075247;28;20496;-68
2022/05/03 01:25:39;;;;;;;5.90;2.83;;;12.60;97.30;;;;;;5075028;28;20041;-68
2022/05/03 01:28:30;;;;;;;5.80;3.50;;;12.60;97.30;;;;;;5074648;28;20127;-68
2022/05/03 01:31:05;;;;;;;6.60;3.53;;;12.60;97.10;;;;;;5075010;28;20037;-68
2022/05/03 01:33:41;;;;;;;4.82;3.35;;;12.60;97.30;;;;;;5074718;28;20052;-68
2022/05/03 01:36:08;;;;;;;5.38;3.67;;;12.60;97.20;;;;;;5074799;28;20032;-68
2022/05/03 01:38:55;;;;;;;5.57;3.35;;;12.60;97.60;;;;;;5074201;28;20040;-68
2022/05/03 01:41:48;;;;;;;5.95;3.50;;;12.60;97.60;;;;;;5074664;28;20036;-68
2022/05/03 01:44:44;;;;;;;6.18;3.30;;;12.50;97.70;;;;;;5074512;28;20033;-68
2022/05/03 01:47:37;;;;;;;4.38;3.42;;;12.50;97.70;;;;;;5074559;28;20051;-68
2022/05/03 01:50:24;;;;;;;5.07;3.67;;;12.50;97.80;;;;;;5074433;28;20048;-67
2022/05/03 01:53:26;;;;;;;5.50;3.20;;;12.60;97.50;;;;;;5074470;28;20048;-67
2022/05/03 01:56:32;;;;;;;6.18;3.13;;;12.70;97.60;;;;;;5074358;28;20123;-68
2022/05/03 01:59:20;;;;;;;5.70;3.47;;;12.70;97.60;;;;;;5019661;28;20509;-69
2022/05/03 02:01:55;;;;;;;8.45;3.85;;;12.60;97.80;;;;;;5073845;28;20078;-68
2022/05/03 02:04:58;;;;;;;4.68;3.40;;;12.60;97.90;;;;;;5073877;28;20434;-68
2022/05/03 02:07:45;;;;;;;10.48;3.58;;;12.80;97.80;;;;;;5073694;28;20032;-68
2022/05/03 02:10:52;;;;;;;7.80;3.63;;;12.70;97.90;;;;;;5073630;28;20068;-68
2022/05/03 02:14:43;;;;;;;4.07;3.47;;;12.90;97.60;;;;;;5043770;28;20075;-68
2022/05/03 02:16:31;;;;;;;3.75;3.03;;;12.90;97.70;;;;;;5073933;28;20033;-68
2022/05/03 02:19:30;;;;;;;4.75;3.42;;;12.80;97.80;;;;;;5074008;28;20495;-68
2022/05/03 02:22:17;;;;;;;5.55;3.97;;;12.80;98.00;;;;;;5074038;28;20032;-68
2022/05/03 02:25:00;;;;;;;6.32;3.83;;;12.80;98.10;;;;;;5074051;28;20496;-68
2022/05/03 02:27:31;;;;;;;6.07;3.95;;;12.80;98.00;;;;;;5073920;28;20044;-68
2022/05/03 02:29:57;;;;;;;5.95;3.65;;;12.70;98.70;;;;;;5073892;28;20081;-68
2022/05/03 02:32:37;;;;;;;9.23;3.80;;;12.70;98.60;;;;;;5073630;28;20109;-68
2022/05/03 02:35:10;;;;;;;7.18;3.63;;;12.60;98.40;;;;;;5073702;28;20040;-68
2022/05/03 02:37:48;;;;;;;6.05;4.13;;;12.60;99.00;;;;;;5073432;28;20044;-68
2022/05/03 02:40:20;;;;;;;7.20;3.75;;;12.50;99.20;;;;;;5073184;28;20040;-67
2022/05/03 02:42:46;;;;;;;4.72;3.85;;;12.50;98.90;;;;;;5073549;28;20492;-68
2022/05/03 02:45:13;;;;;;;7.05;3.50;;;12.50;99.50;;;;;;5073587;28;20036;-68
2022/05/03 02:48:00;;;;;;;6.68;4.30;;;12.50;98.90;;;;;;5073820;28;20089;-68
2022/05/03 02:50:53;;;;;;;6.32;3.75;;;12.60;99.20;;;;;;5072340;28;20123;-68
2022/05/03 02:53:27;;;;;;;3.63;3.25;;;12.50;99.60;;;;;;5065419;28;20589;-68
2022/05/03 02:56:05;;;;;;;4.55;3.90;;;12.30;99.80;;;;;;5073367;28;20033;-69
2022/05/03 02:59:08;;;;;;;5.30;3.22;;;12.40;99.90;;;;;;5071301;28;20151;-68
2022/05/03 03:01:48;;;;;;;5.50;3.70;;;12.50;99.90;;;;;;5059600;28;20045;-68
2022/05/03 03:04:14;;;;;;;7.50;4.38;;;12.40;99.90;;;;;;5051590;28;20060;-69
2022/05/03 03:06:42;;;;;;;5.43;3.78;;;12.60;99.90;;;;;;5053052;28;20397;-69
2022/05/03 03:09:15;;;;;;;8.88;4.00;;;12.60;99.90;;;;;;5053378;28;20040;-68
2022/05/03 03:11:52;;;;;;;6.20;3.72;;;12.50;99.90;;;;;;5053014;28;20040;-68
2022/05/03 03:14:45;;;;;;;5.78;3.72;;;12.50;99.90;;;;;;5052715;28;20691;-68
2022/05/03 03:17:17;;;;;;;7.70;3.97;;;12.60;99.90;;;;;;5052933;28;20044;-68
2022/05/03 03:20:09;;;;;;;7.20;4.35;;;12.50;99.90;;;;;;5052771;28;20132;-68
2022/05/03 03:22:40;;;;;;;6.82;3.35;;;12.30;99.90;;;;;;5052390;28;20530;-68
2022/05/03 03:25:08;;;;;;;8.00;3.90;;;12.10;99.90;;;;;;5052758;28;20033;-68
2022/05/03 03:27:35;;;;;;;8.60;4.28;;;11.90;99.90;;;;;;5052772;28;20470;-67
2022/05/03 03:30:03;;;;;;;8.35;4.65;;;11.90;99.90;;;;;;5052672;28;20037;-68
2022/05/03 03:32:30;;;;;;;6.53;3.92;;;11.80;99.90;;;;;;5052687;28;20148;-68
2022/05/03 03:34:59;;;;;;;10.70;4.53;;;11.80;99.90;;;;;;5053087;28;20083;-67
2022/05/03 03:37:27;;;;;;;5.50;4.70;;;11.80;99.90;;;;;;5065350;28;20044;-68
2022/05/03 03:39:53;;;;;;;8.48;3.95;;;11.80;99.90;;;;;;5072896;28;20029;-68
2022/05/03 03:42:19;;;;;;;4.55;4.05;;;11.90;99.90;;;;;;5072814;28;20052;-69
2022/05/03 03:44:46;;;;;;;7.78;4.03;;;11.90;99.90;;;;;;5072779;28;20036;-68
2022/05/03 03:47:13;;;;;;;9.25;4.43;;;11.90;99.90;;;;;;5072786;28;20040;-68
2022/05/03 03:49:38;;;;;;;5.03;3.80;;;12.00;99.90;;;;;;5072654;28;20040;-68
2022/05/03 03:52:09;;;;;;;7.75;3.95;;;12.00;99.90;;;;;;5072510;28;20042;-68
2022/05/03 03:54:35;;;;;;;6.05;4.45;;;12.10;99.90;;;;;;5072453;28;20900;-68
2022/05/03 03:57:04;;;;;;;7.35;4.20;;;12.10;99.90;;;;;;5072509;28;20040;-68
2022/05/03 03:59:34;;;;;;;6.93;4.88;;;12.00;99.90;;;;;;5072413;28;20029;-68
2022/05/03 04:02:01;;;;;;;7.65;4.65;;;12.00;99.90;;;;;;5075133;28;20089;-68
2022/05/03 04:04:30;;;;;;;6.18;4.13;;;12.00;99.90;;;;;;5076420;28;20040;-67
2022/05/03 04:06:57;;;;;;;6.50;4.18;;;11.80;99.90;;;;;;5076334;28;20056;-68
2022/05/03 04:09:23;;;;;;;5.82;4.10;;;11.90;99.90;;;;;;5076058;28;20033;-68
2022/05/03 04:11:49;;;;;;;5.63;4.55;;;11.90;99.90;;;;;;5076067;28;20047;-68
2022/05/03 04:14:15;;;;;;;6.97;3.85;;;11.80;99.90;;;;;;5076131;28;20098;-68
2022/05/03 04:16:41;;;;;;;6.47;4.13;;;11.60;99.90;;;;;;5076181;28;20777;-68
2022/05/03 04:19:08;;;;;;;7.15;4.38;;;11.50;99.90;;;;;;5076415;28;20119;-68
2022/05/03 04:21:34;;;;;;;5.05;4.20;;;11.30;99.90;;;;;;5076225;28;20044;-68
2022/05/03 04:24:00;;;;;;;5.88;4.20;;;11.30;99.90;;;;;;5076030;28;20040;-68
2022/05/03 04:26:27;;;;;;;14.85;4.43;;;11.40;99.90;;;;;;5075923;28;20045;-68
2022/05/03 04:29:00;;;;;;;7.70;4.40;;;11.30;99.90;;;;;;5075755;28;20503;-68
2022/05/03 04:31:30;;;;;;;6.65;4.78;;;11.30;99.90;;;;;;5075744;28;20075;-68
2022/05/03 04:33:57;;;;;;;6.97;4.45;;;11.10;99.90;;;;;;5076015;28;20044;-68
2022/05/03 04:36:25;;;;;;;7.97;4.93;;;10.90;99.90;;;;;;5076001;28;20044;-69
2022/05/03 04:38:52;;;;;;;5.80;4.13;;;11.00;99.90;;;;;;5075854;28;20048;-69
2022/05/03 04:41:20;;;;;;;6.22;4.55;;;11.20;99.90;;;;;;5075768;28;20105;-68
2022/05/03 04:43:46;;;;;;;8.70;4.60;;;11.20;99.90;;;;;;5075798;28;20037;-68
2022/05/03 04:46:12;;;;;;;8.70;4.70;;;11.20;99.90;;;;;;5075651;28;20575;-68
2022/05/03 04:48:38;;;;;;;7.88;4.93;;;11.30;99.90;;;;;;5075802;28;20112;-68
2022/05/03 04:51:03;;;;;;;6.18;4.32;;;11.50;99.90;;;;;;5075647;28;20040;-68
2022/05/03 04:53:29;;;;;;;7.75;4.70;;;11.70;99.90;;;;;;5075908;28;20048;-68
2022/05/03 04:55:55;;;;;;;10.23;6.00;;;11.70;99.90;;;;;;5076014;28;20036;-68
2022/05/03 04:58:21;;;;;;;11.57;6.53;;;11.60;99.90;;;;;;5075488;28;20036;-68
2022/05/03 05:00:46;;;;;;;12.70;6.82;;;11.70;99.90;;;;;;5075650;28;20047;-68
2022/05/03 05:03:13;;;;;;;17.75;8.52;;;11.70;99.90;;;;;;5075361;28;20123;-68
2022/05/03 05:05:39;;;;;;;16.00;8.45;;;11.70;99.90;;;;;;5075371;28;20495;-68
2022/05/03 05:08:06;;;;;;;29.67;13.70;;;11.60;99.90;;;;;;5075601;28;20112;-68
2022/05/03 05:10:33;;;;;;;13.30;6.75;;;11.60;99.90;;;;;;5075357;28;20040;-68
2022/05/03 05:13:00;;;;;;;6.63;4.97;;;11.60;99.90;;;;;;5074008;28;20462;-68
2022/05/03 05:15:27;;;;;;;6.68;4.90;;;11.60;99.90;;;;;;5074173;28;20036;-68
2022/05/03 05:17:54;;;;;;;6.90;4.70;;;11.60;99.90;;;;;;5075131;28;20046;-68
2022/05/03 05:20:20;;;;;;;12.68;6.25;;;11.50;99.90;;;;;;5074923;28;20036;-68
2022/05/03 05:22:47;;;;;;;7.40;4.72;;;11.60;99.90;;;;;;5075088;28;20500;-68
2022/05/03 05:25:13;;;;;;;6.82;4.03;;;11.70;99.90;;;;;;5075088;28;20564;-69
2022/05/03 05:27:39;;;;;;;5.95;4.43;;;11.90;99.90;;;;;;5074596;28;20090;-68
2022/05/03 05:30:08;;;;;;;10.70;4.82;;;11.90;99.90;;;;;;5075007;28;20040;-67
2022/05/03 05:32:38;;;;;;;12.95;6.32;;;11.90;99.90;;;;;;5073740;28;20109;-68
2022/05/03 05:35:05;;;;;;;7.85;4.55;;;11.90;99.90;;;;;;5065143;28;20052;-68
2022/05/03 05:37:34;;;;;;;6.85;4.68;;;11.90;99.90;;;;;;5065376;28;20461;-68
2022/05/03 05:40:00;;;;;;;6.05;4.57;;;11.80;99.90;;;;;;5065766;28;20037;-70
2022/05/03 05:42:26;;;;;;;7.50;4.50;;;11.90;99.90;;;;;;5057198;28;20040;-69
2022/05/03 05:44:52;;;;;;;7.38;5.18;;;11.90;99.90;;;;;;5067662;28;20079;-71
2022/05/03 05:47:18;;;;;;;7.72;4.20;;;12.00;99.90;;;;;;5058994;28;20037;-69
2022/05/03 05:49:44;;;;;;;8.52;4.65;;;12.10;99.90;;;;;;5068664;28;20135;-69
2022/05/03 05:54:54;;;;;;;5.50;4.30;;;12.00;99.90;;;;;;5066093;28;20530;-69
2022/05/03 05:57:26;;;;;;;9.18;4.80;;;11.90;99.90;;;;;;5059807;28;20238;-69
2022/05/03 05:59:52;;;;;;;6.00;4.45;;;12.00;99.90;;;;;;5062020;28;20050;-68
2022/05/03 06:02:18;;;;;;;5.28;4.20;;;12.10;99.90;;;;;;5056422;28;20492;-68
2022/05/03 06:04:44;;;;;;;5.65;4.55;;;12.10;99.90;;;;;;5063445;28;20055;-69
2022/05/03 06:07:10;;;;;;;8.30;4.20;;;12.20;99.90;;;;;;5060170;28;20033;-69
2022/05/03 06:09:35;;;;;;;5.70;4.53;;;12.30;99.90;;;;;;5067309;28;20058;-68
2022/05/03 06:12:01;;;;;;;5.93;4.47;;;12.40;99.90;;;;;;5070228;28;20044;-69
2022/05/03 06:14:27;;;;;;;5.38;4.28;;;12.40;99.90;;;;;;5061766;28;20041;-69
2022/05/03 06:16:55;;;;;;;7.30;4.50;;;12.50;99.90;;;;;;5051246;28;20055;-68
2022/05/03 06:19:21;;;;;;;5.68;4.68;;;12.50;99.90;;;;;;5054292;28;20041;-68
2022/05/03 06:21:47;;;;;;;7.55;4.07;;;12.40;99.90;;;;;;5069927;28;20079;-68
2022/05/03 06:24:13;;;;;;;5.97;4.32;;;12.50;99.90;;;;;;5070538;28;20041;-69
2022/05/03 06:26:40;;;;;;;6.72;4.22;;;12.70;99.90;;;;;;5071316;28;20044;-68
2022/05/03 06:29:08;;;;;;;5.78;4.82;;;12.80;99.90;;;;;;5071654;28;20037;-68
2022/05/03 06:31:42;;;;;;;8.55;5.30;;;12.90;99.90;;;;;;5071742;28;20079;-68
2022/05/03 06:34:08;;;;;;;5.65;4.82;;;13.00;99.90;;;;;;5071796;28;20051;-68
2022/05/03 06:36:37;;;;;;;6.80;4.90;;;13.20;99.90;;;;;;5071076;28;20032;-69
2022/05/03 06:39:05;;;;;;;7.28;4.53;;;13.30;99.90;;;;;;5072129;28;20385;-68
2022/05/03 06:41:34;;;;;;;4.82;4.32;;;13.30;99.90;;;;;;5072732;28;20083;-68
2022/05/03 06:44:00;;;;;;;14.55;6.30;;;13.30;99.90;;;;;;5072374;28;20125;-69
2022/05/03 06:46:27;;;;;;;7.13;5.32;;;13.30;99.90;;;;;;5072161;28;20047;-68
2022/05/03 06:48:53;;;;;;;8.52;5.85;;;13.30;99.90;;;;;;5071539;28;20044;-68
2022/05/03 06:51:19;;;;;;;12.20;7.13;;;13.30;99.90;;;;;;5071501;28;20044;-68
2022/05/03 06:53:46;;;;;;;6.95;5.07;;;13.40;99.90;;;;;;5072748;28;20121;-69
2022/05/03 06:56:12;;;;;;;10.30;5.40;;;13.50;99.90;;;;;;5071699;28;20492;-68
2022/05/03 06:58:39;;;;;;;5.68;5.00;;;13.50;99.90;;;;;;5072491;28;20029;-68
2022/05/03 07:01:09;;;;;;;8.43;5.20;;;13.40;99.90;;;;;;5073146;28;20043;-68
2022/05/03 07:03:36;;;;;;;12.38;7.43;;;13.60;99.90;;;;;;5071192;28;20123;-68
2022/05/03 07:06:02;;;;;;;10.05;6.22;;;13.70;99.90;;;;;;5071177;28;20040;-69
2022/05/03 07:08:29;;;;;;;8.10;4.90;;;13.80;99.90;;;;;;5071582;28;20043;-68
2022/05/03 07:10:54;;;;;;;12.68;5.60;;;13.80;99.90;;;;;;5070917;28;20079;-68
2022/05/03 07:13:23;;;;;;;12.10;6.75;;;13.80;99.90;;;;;;5071255;28;20480;-68
2022/05/03 07:15:53;;;;;;;9.40;5.68;;;14.10;99.90;;;;;;5071224;28;20044;-68
2022/05/03 07:23:49;;;;;;;6.30;5.07;;;14.60;99.90;;;;;;5069558;28;20067;-69
2022/05/03 07:26:15;;;;;;;8.20;5.10;;;14.70;99.90;;;;;;5071074;28;20064;-68
2022/05/03 07:28:41;;;;;;;8.60;4.97;;;14.80;99.90;;;;;;5071046;28;20040;-68
2022/05/03 07:31:08;;;;;;;7.05;5.28;;;14.80;99.90;;;;;;5070819;28;20500;-68
2022/05/03 07:33:34;;;;;;;12.57;5.18;;;14.90;99.90;;;;;;5071123;28;20129;-69
2022/05/03 07:36:00;;;;;;;8.15;5.07;;;15.00;99.90;;;;;;5070582;28;20488;-68
2022/05/03 07:38:26;;;;;;;9.05;4.95;;;15.40;99.90;;;;;;5071215;28;20503;-68
2022/05/03 07:40:51;;;;;;;5.03;4.22;;;15.60;99.90;;;;;;5070688;28;20051;-69
2022/05/03 07:43:17;;;;;;;10.85;4.70;;;15.70;99.90;;;;;;5071017;28;20071;-68
2022/05/03 07:45:43;;;;;;;7.57;4.40;;;15.90;99.90;;;;;;5070761;28;20119;-68
2022/05/03 07:48:09;;;;;;;6.20;4.47;;;15.90;99.90;;;;;;5071013;28;20214;-68
2022/05/03 07:50:35;;;;;;;16.15;8.07;;;15.90;99.90;;;;;;5070277;28;20043;-69
2022/05/03 07:53:01;;;;;;;6.05;4.72;;;16.00;99.90;;;;;;5071130;28;20052;-69
2022/05/03 07:55:27;;;;;;;5.60;4.75;;;16.00;99.90;;;;;;5071100;28;20041;-69
2022/05/03 07:57:52;;;;;;;6.47;4.65;;;16.30;99.90;;;;;;5070679;28;20036;-69
2022/05/03 08:00:18;;;;;;;8.95;5.25;;;16.50;99.90;;;;;;5072236;28;20597;-69
2022/05/03 08:02:44;;;;;;;6.85;4.63;;;16.70;99.90;;;;;;5070619;28;20098;-69
2022/05/03 08:05:10;;;;;;;5.65;4.40;;;16.80;99.90;;;;;;5070301;28;20480;-69
2022/05/03 08:07:36;;;;;;;6.53;4.13;;;17.10;99.90;;;;;;5070717;28;20052;-69
2022/05/03 08:10:05;;;;;;;16.33;8.43;;;17.40;99.90;;;;;;5070510;28;20044;-69
2022/05/03 08:12:31;;;;;;;7.20;4.32;;;17.50;99.90;;;;;;5070226;28;20456;-69
2022/05/03 08:14:57;;;;;;;9.75;5.00;;;17.70;99.90;;;;;;5070647;28;20072;-70
2022/05/03 08:17:28;;;;;;;6.45;4.32;;;18.10;99.90;;;;;;5069923;28;20071;-69
2022/05/03 08:19:54;;;;;;;5.30;4.03;;;18.40;99.90;;;;;;5069579;28;20040;-70
2022/05/03 08:22:20;;;;;;;9.48;4.38;;;18.50;99.90;;;;;;5070587;28;20102;-69
2022/05/03 08:24:46;;;;;;;13.90;5.70;;;18.70;99.90;;;;;;5070339;28;20487;-70
2022/05/03 08:27:12;;;;;;;6.60;3.92;;;19.00;99.90;;;;;;5070093;28;20082;-70
2022/05/03 08:29:38;;;;;;;6.03;4.10;;;19.00;99.90;;;;;;5070513;28;20094;-70
2022/05/03 08:32:04;;;;;;;9.52;4.50;;;19.50;99.90;;;;;;5070625;28;20044;-70
2022/05/03 08:34:31;;;;;;;13.10;6.32;;;19.60;99.90;;;;;;5070214;28;20452;-69
2022/05/03 08:42:28;;;;;;;11.93;5.30;;;18.90;99.90;;;;;;5070833;28;20082;-69
2022/05/03 08:44:55;;;;;;;7.20;4.18;;;19.20;99.90;;;;;;5070155;28;20040;-69
2022/05/03 08:47:24;;;;;;;12.82;4.85;;;19.40;99.90;;;;;;5068914;28;20048;-69
2022/05/03 08:50:08;;;;;;;8.07;5.10;;;19.30;99.10;;;;;;5065426;28;20127;-69
2022/05/03 08:52:45;;;;;;;14.98;5.47;;;20.20;99.40;;;;;;5054057;28;20060;-69
2022/05/03 08:55:12;;;;;;;16.65;8.95;;;20.80;99.50;;;;;;5055472;28;20041;-69
2022/05/03 08:57:38;;;;;;;6.30;4.50;;;20.60;99.70;;;;;;5061322;28;20395;-69
2022/05/03 09:00:05;;;;;;;7.72;4.25;;;20.50;97.80;;;;;;5075291;28;20081;-69
2022/05/03 09:02:33;;;;;;;7.03;4.55;;;20.50;98.50;;;;;;5062939;28;20041;-69
2022/05/03 09:04:59;;;;;;;8.57;4.38;;;20.40;97.30;;;;;;5055710;28;20037;-69
2022/05/03 09:07:26;;;;;;;9.00;4.95;;;19.80;94.60;;;;;;5055520;28;20048;-69
2022/05/03 09:09:53;;;;;;;4.70;4.15;;;19.90;95.30;;;;;;5055296;28;20443;-69
2022/05/03 09:12:30;;;;;;;9.15;4.72;;;19.20;94.00;;;;;;5055275;28;20036;-69
2022/05/03 09:15:00;;;;;;;7.53;4.90;;;18.40;93.90;;;;;;5055332;28;20059;-69
2022/05/03 09:17:41;;;;;;;7.85;5.00;;;19.10;94.10;;;;;;5055431;28;20040;-68
2022/05/03 09:25:44;;;;;;;7.85;4.93;;;18.80;94.00;;;;;;5073030;28;20450;-69
2022/05/03 09:28:10;;;;;;;9.50;5.40;;;18.10;93.10;;;;;;5074025;28;20124;-69
2022/05/03 09:30:45;;;;;;;8.65;4.72;;;17.70;94.20;;;;;;5074854;28;20119;-68
2022/05/03 09:33:16;;;;;;;9.63;5.03;;;18.20;94.20;;;;;;5074583;28;20055;-68
2022/05/03 09:35:41;;;;;;;5.10;4.45;;;18.40;94.90;;;;;;5075103;28;20113;-68
2022/05/03 09:38:07;;;;;;;6.50;4.80;;;17.80;94.50;;;;;;5074575;28;20487;-68
2022/05/03 09:40:41;;;;;;;6.93;5.07;;;18.10;95.30;;;;;;5074607;28;20040;-68
2022/05/03 09:43:08;;;;;;;8.38;4.70;;;18.00;94.10;;;;;;5067867;28;20127;-68
2022/05/03 09:45:36;;;;;;;7.32;4.82;;;17.60;95.50;;;;;;5054663;28;20110;-69
2022/05/03 09:48:02;;;;;;;7.13;4.80;;;17.80;94.90;;;;;;5054388;28;20041;-69
2022/05/03 09:50:33;;;;;;;9.32;4.30;;;17.80;95.40;;;;;;5054480;28;20029;-69
2022/05/03 09:53:17;;;;;;;8.80;4.50;;;17.80;95.50;;;;;;5054551;28;20063;-68
2022/05/03 09:55:46;;;;;;;7.60;4.75;;;18.10;94.90;;;;;;5054643;28;20053;-68
2022/05/03 09:58:15;;;;;;;14.30;5.25;;;17.80;95.80;;;;;;5054292;28;20041;-69
2022/05/03 10:00:43;;;;;;;6.40;4.40;;;17.40;94.70;;;;;;5054438;28;20036;-69
2022/05/03 10:03:10;;;;;;;6.60;4.40;;;17.40;94.10;;;;;;5054348;28;20365;-69
2022/05/03 10:05:45;;;;;;;8.38;5.55;;;17.50;95.00;;;;;;5054261;28;20040;-68
2022/05/03 10:08:16;;;;;;;6.85;5.40;;;17.70;95.30;;;;;;5054213;28;20048;-68
2022/05/03 10:10:43;;;;;;;7.20;5.90;;;18.00;95.10;;;;;;5054034;28;20515;-68
2022/05/03 10:13:13;;;;;;;6.78;5.38;;;18.20;96.50;;;;;;5054441;28;20052;-68
2022/05/03 10:21:27;;;;;;;5.80;4.28;;;18.40;95.10;;;;;;5053885;28;20036;-68
2022/05/03 10:24:09;;;;;;;15.95;4.72;;;18.30;94.80;;;;;;5054136;28;20492;-69
2022/05/03 10:26:52;;;;;;;7.40;4.80;;;18.40;93.80;;;;;;5059815;28;20028;-68
2022/05/03 10:29:25;;;;;;;7.63;5.68;;;18.40;94.90;;;;;;5074038;28;20032;-68
2022/05/03 10:31:56;;;;;;;6.75;5.32;;;18.60;95.00;;;;;;5073881;28;20072;-69
2022/05/03 10:34:43;;;;;;;7.85;5.63;;;18.70;95.00;;;;;;5073725;28;20131;-69
2022/05/03 10:37:11;;;;;;;8.68;5.28;;;18.70;94.20;;;;;;5073790;28;20507;-68
2022/05/03 10:39:49;;;;;;;7.75;5.88;;;18.70;93.80;;;;;;5073695;28;20097;-68
2022/05/03 10:42:15;;;;;;;6.50;5.35;;;18.60;95.20;;;;;;5073645;28;20526;-68
2022/05/03 10:44:52;;;;;;;8.27;5.05;;;18.60;94.30;;;;;;5071494;28;20499;-68
2022/05/03 10:47:20;;;;;;;5.78;4.65;;;18.40;93.90;;;;;;5071299;28;20064;-69
2022/05/03 10:50:16;;;;;;;7.30;5.35;;;18.30;94.10;;;;;;5070738;28;20040;-70
2022/05/03 10:53:02;;;;;;;5.50;5.00;;;18.00;93.70;;;;;;5070494;28;20048;-69
2022/05/03 10:56:04;;;;;;;7.80;5.25;;;17.90;93.70;;;;;;5071368;28;20431;-70
2022/05/03 10:58:38;;;;;;;7.20;4.90;;;18.10;94.70;;;;;;5070759;28;20041;-69
2022/05/03 11:01:21;;;;;;;10.10;6.07;;;18.00;94.40;;;;;;5070828;28;21057;-70
2022/05/03 11:03:57;;;;;;;9.93;6.20;;;18.10;94.10;;;;;;5068546;28;20115;-70
2022/05/03 11:06:23;;;;;;;8.57;6.18;;;18.10;94.10;;;;;;5071206;28;20032;-69
2022/05/03 11:11:44;;;;;;;10.02;4.70;;;18.70;93.80;;;;;;5072341;28;20064;-70
2022/05/03 11:16:50;;;;;;;5.03;2.85;;;19.00;94.30;;;;;;5070703;28;20028;-70
2022/05/03 11:19:20;;;;;;;4.20;3.50;;;18.70;91.70;;;;;;5071116;28;20047;-69
2022/05/03 11:21:48;;;;;;;5.43;3.60;;;18.30;92.60;;;;;;5064228;28;20036;-69
2022/05/03 11:24:22;;;;;;;7.28;2.85;;;18.20;93.10;;;;;;5059671;28;20404;-69
2022/05/03 11:26:50;;;;;;;5.03;2.30;;;18.90;92.20;;;;;;5059723;28;20068;-69
2022/05/03 11:29:16;;;;;;;5.88;2.45;;;18.80;91.00;;;;;;5058344;28;20412;-70
2022/05/03 11:31:47;;;;;;;6.68;3.35;;;19.20;91.30;;;;;;5070721;28;20040;-70
2022/05/03 11:34:13;;;;;;;2.60;2.20;;;19.30;91.30;;;;;;5070758;28;20091;-70
2022/05/03 11:36:42;;;;;;;3.38;2.78;;;19.70;91.00;;;;;;5062755;28;20118;-70
2022/05/03 11:39:10;;;;;;;3.97;2.70;;;19.70;92.40;;;;;;5050791;28;20163;-70
2022/05/03 11:41:37;;;;;;;3.70;2.80;;;19.70;91.00;;;;;;5050611;28;20040;-71
2022/05/03 11:44:04;;;;;;;4.13;2.35;;;19.60;90.80;;;;;;5050651;28;20040;-71
2022/05/03 11:46:30;;;;;;;8.25;2.08;;;19.60;92.00;;;;;;5050933;28;20036;-70
2022/05/03 11:49:01;;;;;;;7.55;2.45;;;19.60;93.60;;;;;;5050053;28;20049;-70
2022/05/03 11:57:16;;;;;;;5.30;2.17;;;18.90;93.00;;;;;;5070322;28;20036;-69
2022/05/03 11:59:43;;;;;;;6.75;2.53;;;18.50;93.60;;;;;;5070575;28;20040;-69
2022/05/03 12:02:15;;;;;;;5.90;2.53;;;18.30;94.50;;;;;;5068964;28;20661;-69
2022/05/03 12:05:06;;;;;;;4.65;2.42;;;18.40;94.90;;;;;;5070172;28;20112;-69
2022/05/03 12:07:41;;;;;;;7.03;2.85;;;18.30;94.70;;;;;;5071504;28;20033;-70
2022/05/03 12:10:19;;;;;;;5.72;2.58;;;18.30;94.10;;;;;;5071367;28;20141;-70
2022/05/03 12:13:02;;;;;;;10.18;2.90;;;18.30;94.60;;;;;;5068668;28;20546;-71
2022/05/03 12:15:31;;;;;;;8.32;2.33;;;18.20;93.40;;;;;;5069271;28;20051;-71
2022/05/03 12:18:01;;;;;;;3.88;2.40;;;18.30;94.60;;;;;;5069934;28;20033;-71
2022/05/03 12:20:39;;;;;;;;;;;18.10;93.70;;;;;;5070889;28;20121;-71
2022/05/03 12:23:14;;;;;;;6.00;3.00;;;17.90;94.30;;;;;;5072327;28;19915;-70
2022/05/03 12:25:44;;;;;;;5.28;2.28;;;18.20;95.60;;;;;;5073807;28;20049;-71
2022/05/03 12:28:10;;;;;;;4.65;2.80;;;18.00;94.20;;;;;;5073817;28;20045;-71
2022/05/03 12:30:36;;;;;;;3.92;2.50;;;18.20;95.00;;;;;;5074403;28;20071;-71
2022/05/03 12:33:06;;;;;;;4.30;2.65;;;18.20;94.70;;;;;;5073823;28;20411;-71
2022/05/03 12:35:34;;;;;;;4.00;2.20;;;18.40;94.40;;;;;;5073745;28;20135;-72
2022/05/03 12:38:17;;;;;;;4.03;2.38;;;18.30;93.90;;;;;;5074495;28;20388;-71
2022/05/03 12:40:47;;;;;;;4.50;1.85;;;18.30;93.30;;;;;;5073659;28;20114;-71
2022/05/03 12:43:21;;;;;;;2.38;1.90;;;18.30;93.10;;;;;;5073610;28;20496;-72
2022/05/03 12:46:02;;;;;;;2.95;2.17;;;18.30;93.00;;;;;;5073527;28;20041;-70
2022/05/03 12:48:29;;;;;;;4.30;2.50;;;18.60;94.40;;;;;;5073784;28;20041;-71
2022/05/03 12:50:56;;;;;;;3.17;1.88;;;18.60;94.00;;;;;;5072297;28;20067;-71
2022/05/03 12:53:30;;;;;;;3.15;2.20;;;18.40;92.70;;;;;;5070469;28;20055;-71
2022/05/03 12:55:57;;;;;;;2.38;2.03;;;18.40;93.10;;;;;;5052984;28;20044;-71
2022/05/03 12:58:24;;;;;;;16.00;6.38;;;18.40;93.70;;;;;;5054301;28;20033;-71
2022/05/03 13:00:59;;;;;;;2.28;1.58;;;18.40;92.70;;;;;;5052473;28;20036;-71
2022/05/03 13:03:24;;;;;;;2.58;1.63;;;18.10;92.40;;;;;;5053573;28;20048;-71
2022/05/03 13:05:51;;;;;;;2.45;1.17;;;18.10;92.90;;;;;;5053185;28;20040;-71
2022/05/03 13:08:17;;;;;;;2.25;1.17;;;18.50;93.40;;;;;;5053694;28;20036;-71
2022/05/03 13:10:44;;;;;;;2.03;1.15;;;18.10;92.30;;;;;;5052846;28;20048;-71
2022/05/03 13:13:10;;;;;;;22.98;2.50;;;18.10;92.50;;;;;;5058234;28;20060;-72
2022/05/03 13:15:38;;;;;;;2.78;1.17;;;18.40;91.90;;;;;;5064849;28;20123;-72
2022/05/03 13:18:04;;;;;;;5.25;1.27;;;18.30;92.80;;;;;;5060662;28;20737;-71
2022/05/03 13:20:30;;;;;;;5.32;1.30;;;18.30;91.80;;;;;;5073110;28;20040;-71
2022/05/03 13:22:57;;;;;;;5.40;1.52;;;18.80;92.70;;;;;;5073238;28;20040;-72
2022/05/03 13:25:23;;;;;;;2.80;1.92;;;19.20;93.60;;;;;;5073058;28;20515;-72
2022/05/03 13:27:50;;;;;;;2.95;1.45;;;19.40;93.70;;;;;;5072607;28;20049;-72
2022/05/03 13:30:17;;;;;;;2.53;1.45;;;19.50;92.20;;;;;;5073331;28;20106;-72
2022/05/03 13:32:42;;;;;;;1.55;1.33;;;19.30;93.70;;;;;;5072816;28;20048;-71
2022/05/03 13:35:09;;;;;;;1.98;1.48;;;19.40;93.20;;;;;;5072153;28;20409;-72
2022/05/03 13:40:28;;;;;;;2.85;1.63;;;19.30;93.60;;;;;;5073432;28;20071;-72
2022/05/03 13:42:55;;;;;;;2.72;1.30;;;19.50;95.10;;;;;;5074487;28;20068;-72
2022/05/03 13:45:21;;;;;;;3.50;1.77;;;19.60;94.60;;;;;;5072783;28;20036;-72